Time;durP1;ratioP1;P1;durP2;ratioP2;P2;SDS_P1;SDS_P2;PMS_P1;PMS_P2;Temp;Humidity;BMP_temperature;BMP_pressure;BME280_temperature;BME280_humidity;BME280_pressure;Samples;Min_cycle;Max_cycle;Signal;HPM_P1;HPM_P2
2024/03/03 00:04:47;;;;;;;31.08;25.38;;;;;;;-146.18;100.00;67994.34;10351595;27;20043;-71
2024/03/03 00:09:45;;;;;;;30.50;25.65;;;;;;;-146.18;100.00;67994.34;10351792;27;20039;-71
2024/03/03 00:14:44;;;;;;;34.47;26.98;;;;;;;-146.18;100.00;67994.34;10351562;27;20047;-71
2024/03/03 00:19:41;;;;;;;37.20;27.85;;;;;;;-146.18;100.00;67994.34;10352750;27;20468;-71
2024/03/03 00:24:37;;;;;;;32.95;25.35;;;;;;;-146.18;100.00;67994.34;10344268;27;20059;-71
2024/03/03 00:29:34;;;;;;;34.88;26.45;;;;;;;-146.18;100.00;67994.34;10349426;28;20127;-71
2024/03/03 00:34:30;;;;;;;35.22;25.90;;;;;;;-146.18;100.00;67994.34;10348028;27;20048;-71
2024/03/03 00:39:27;;;;;;;31.33;24.63;;;;;;;-146.18;100.00;67994.34;10351696;27;20044;-71
2024/03/03 00:44:23;;;;;;;36.10;26.13;;;;;;;-146.18;100.00;67994.34;10356520;28;20048;-71
2024/03/03 00:49:20;;;;;;;35.45;27.10;;;;;;;-146.18;100.00;67994.34;10359162;27;20458;-71
2024/03/03 00:54:17;;;;;;;39.70;26.70;;;;;;;-146.18;100.00;67994.34;10368674;27;20128;-71
2024/03/03 00:59:14;;;;;;;34.35;25.58;;;;;;;-146.18;100.00;67994.34;10366188;27;20043;-71
2024/03/03 01:04:10;;;;;;;35.85;25.05;;;;;;;-146.18;100.00;67994.34;10360167;27;20462;-71
2024/03/03 01:09:07;;;;;;;35.40;24.70;;;;;;;-146.18;100.00;67994.34;10369816;27;20047;-71
2024/03/03 01:14:04;;;;;;;33.15;27.08;;;;;;;-146.18;100.00;67994.34;10358621;27;20055;-71
2024/03/03 01:19:00;;;;;;;30.25;23.88;;;;;;;-146.18;100.00;67994.34;10345468;27;20055;-71
2024/03/03 01:23:57;;;;;;;41.58;27.88;;;;;;;-146.18;100.00;67994.34;10351949;27;20549;-71
2024/03/03 01:28:53;;;;;;;36.80;25.77;;;;;;;-146.18;100.00;67994.34;10357635;27;20093;-72
2024/03/03 01:33:49;;;;;;;36.72;28.33;;;;;;;-146.18;100.00;67994.34;10353873;27;20051;-71
2024/03/03 01:38:46;;;;;;;40.75;28.98;;;;;;;-146.18;100.00;67994.34;10348997;27;20044;-71
2024/03/03 01:43:43;;;;;;;36.70;28.00;;;;;;;-146.18;100.00;67994.34;10350018;27;20507;-71
2024/03/03 01:48:40;;;;;;;40.95;27.90;;;;;;;-146.18;100.00;67994.34;10345251;27;20906;-71
2024/03/03 01:53:40;;;;;;;40.35;28.42;;;;;;;-146.18;100.00;67994.34;10347246;27;20047;-71
2024/03/03 01:58:39;;;;;;;36.30;26.95;;;;;;;-146.18;100.00;67994.34;10354238;27;20048;-71
2024/03/03 02:03:36;;;;;;;35.80;26.30;;;;;;;-146.18;100.00;67994.34;10353398;27;20427;-71
2024/03/03 02:08:33;;;;;;;42.33;28.40;;;;;;;-146.18;100.00;67994.34;10350689;27;20457;-72
2024/03/03 02:13:30;;;;;;;34.75;27.33;;;;;;;-146.18;100.00;67994.34;10351982;27;20113;-71
2024/03/03 02:18:26;;;;;;;41.10;29.10;;;;;;;-146.18;100.00;67994.34;10356680;28;20113;-71
2024/03/03 02:23:23;;;;;;;40.10;27.23;;;;;;;-146.18;100.00;67994.34;10353102;27;20044;-71
2024/03/03 02:28:19;;;;;;;37.97;29.52;;;;;;;-146.18;100.00;67994.34;10357609;27;20043;-71
2024/03/03 02:33:16;;;;;;;40.67;27.45;;;;;;;-146.18;100.00;67994.34;10350840;27;20051;-71
2024/03/03 02:38:12;;;;;;;39.17;27.67;;;;;;;-146.18;100.00;67994.34;10357078;27;20079;-70
2024/03/03 02:43:09;;;;;;;37.63;28.40;;;;;;;-146.18;100.00;67994.34;10358469;27;20768;-71
2024/03/03 02:48:06;;;;;;;40.70;28.13;;;;;;;-146.18;100.00;67994.34;10358884;27;20044;-70
2024/03/03 02:53:02;;;;;;;39.35;28.33;;;;;;;-146.18;100.00;67994.34;10355498;27;20126;-71
2024/03/03 02:57:59;;;;;;;39.28;28.13;;;;;;;-146.18;100.00;67994.34;10355041;27;20109;-71
2024/03/03 03:02:55;;;;;;;36.00;26.58;;;;;;;-146.18;100.00;67994.34;10353647;27;20115;-71
2024/03/03 03:07:52;;;;;;;45.22;28.10;;;;;;;-146.18;100.00;67994.34;10343665;28;20040;-71
2024/03/03 03:12:48;;;;;;;38.95;28.42;;;;;;;-146.18;100.00;67994.34;10340194;27;20071;-71
2024/03/03 03:17:46;;;;;;;42.55;28.70;;;;;;;-146.18;100.00;67994.34;10342786;27;20101;-71
2024/03/03 03:22:42;;;;;;;38.17;27.35;;;;;;;-146.18;100.00;67994.34;10358414;27;20044;-71
2024/03/03 03:27:40;;;;;;;39.83;28.08;;;;;;;-146.18;100.00;67994.34;10349952;28;20048;-71
2024/03/03 03:32:36;;;;;;;37.17;27.42;;;;;;;-146.18;100.00;67994.34;10351196;27;20109;-71
2024/03/03 03:37:33;;;;;;;39.38;27.80;;;;;;;-146.18;100.00;67994.34;10350922;27;20052;-71
2024/03/03 03:42:29;;;;;;;37.55;28.00;;;;;;;-146.18;100.00;67994.34;10355891;27;20075;-71
2024/03/03 03:47:26;;;;;;;34.42;27.38;;;;;;;-146.18;100.00;67994.34;10355254;27;20047;-71
2024/03/03 03:52:22;;;;;;;36.78;28.40;;;;;;;-146.18;100.00;67994.34;10354710;27;20032;-71
2024/03/03 03:57:19;;;;;;;41.47;28.40;;;;;;;-146.18;100.00;67994.34;10352689;27;20423;-71
2024/03/03 04:02:15;;;;;;;37.45;27.98;;;;;;;-146.18;100.00;67994.34;10356435;27;20267;-71
2024/03/03 04:07:12;;;;;;;38.70;28.20;;;;;;;-146.18;100.00;67994.34;10354528;27;20047;-71
2024/03/03 04:12:08;;;;;;;35.35;27.60;;;;;;;-146.18;100.00;67994.34;10348094;27;20062;-71
2024/03/03 04:17:05;;;;;;;38.70;28.52;;;;;;;-146.18;100.00;67994.34;10345895;27;20048;-71
2024/03/03 04:22:02;;;;;;;39.42;28.48;;;;;;;-146.18;100.00;67994.34;10345673;27;20135;-70
2024/03/03 04:26:58;;;;;;;40.33;29.13;;;;;;;-146.18;100.00;67994.34;10350225;27;20433;-70
2024/03/03 04:31:54;;;;;;;42.53;28.17;;;;;;;-146.18;100.00;67994.34;10348214;27;20078;-71
2024/03/03 04:36:51;;;;;;;35.67;26.77;;;;;;;-146.18;100.00;67994.34;10352676;27;20044;-72
2024/03/03 04:41:47;;;;;;;41.85;29.13;;;;;;;-146.18;100.00;67994.34;10348643;27;20075;-70
2024/03/03 04:46:44;;;;;;;42.95;29.17;;;;;;;-146.18;100.00;67994.34;10352904;27;20054;-72
2024/03/03 04:51:40;;;;;;;41.45;29.25;;;;;;;-146.18;100.00;67994.34;10359837;27;20516;-71
2024/03/03 04:56:37;;;;;;;41.40;28.08;;;;;;;-146.18;100.00;67994.34;10357097;27;20061;-71
2024/03/03 05:01:33;;;;;;;37.65;28.42;;;;;;;-146.18;100.00;67994.34;10340532;28;20056;-70
2024/03/03 05:06:30;;;;;;;41.78;30.15;;;;;;;-146.18;100.00;67994.34;10353258;27;20127;-71
2024/03/03 05:11:27;;;;;;;40.97;30.48;;;;;;;-146.18;100.00;67994.34;10353531;27;20556;-71
2024/03/03 05:16:23;;;;;;;42.65;30.17;;;;;;;-146.18;100.00;67994.34;10342348;27;20444;-71
2024/03/03 05:21:20;;;;;;;39.40;29.38;;;;;;;-146.18;100.00;67994.34;10351788;27;20417;-71
2024/03/03 05:26:16;;;;;;;38.47;28.85;;;;;;;-146.18;100.00;67994.34;10351522;27;20051;-71
2024/03/03 05:31:13;;;;;;;42.65;28.40;;;;;;;-146.18;100.00;67994.34;10351345;27;20047;-72
2024/03/03 05:36:11;;;;;;;42.60;31.02;;;;;;;-146.18;100.00;67994.34;10350058;28;20044;-71
2024/03/03 05:41:08;;;;;;;39.28;30.75;;;;;;;-146.18;100.00;67994.34;10356289;27;20055;-71
2024/03/03 05:46:04;;;;;;;48.38;32.10;;;;;;;-146.18;100.00;67994.34;10357050;27;20089;-71
2024/03/03 05:51:01;;;;;;;41.25;28.92;;;;;;;-146.18;100.00;67994.34;10363514;27;20135;-71
2024/03/03 05:55:57;;;;;;;43.40;30.05;;;;;;;-146.18;100.00;67994.34;10355146;27;20119;-71
2024/03/03 06:00:54;;;;;;;45.65;30.92;;;;;;;-146.18;100.00;67994.34;10356571;27;20522;-71
2024/03/03 06:05:50;;;;;;;45.38;28.73;;;;;;;-146.18;100.00;67994.34;10360690;27;20078;-70
2024/03/03 06:10:47;;;;;;;42.83;29.45;;;;;;;-146.18;100.00;67994.34;10359254;27;20101;-71
2024/03/03 06:15:43;;;;;;;40.83;29.17;;;;;;;-146.18;100.00;67994.34;10356253;27;20040;-72
2024/03/03 06:20:40;;;;;;;41.70;29.88;;;;;;;-146.18;100.00;67994.34;10357177;27;20127;-71
2024/03/03 06:25:37;;;;;;;43.28;29.63;;;;;;;-146.18;100.00;67994.34;10354918;27;20051;-71
2024/03/03 06:30:33;;;;;;;41.15;29.33;;;;;;;-146.18;100.00;67994.34;10355919;27;20047;-71
2024/03/03 06:35:29;;;;;;;41.88;29.02;;;;;;;-146.18;100.00;67994.34;10367125;27;20052;-71
2024/03/03 06:40:26;;;;;;;45.20;31.20;;;;;;;-146.18;100.00;67994.34;10356939;27;20113;-71
2024/03/03 06:45:22;;;;;;;41.85;29.33;;;;;;;-146.18;100.00;67994.34;10347369;28;20056;-72
2024/03/03 06:50:19;;;;;;;46.42;30.42;;;;;;;-146.18;100.00;67994.34;10355866;27;20419;-71
2024/03/03 06:55:16;;;;;;;46.28;31.52;;;;;;;-146.18;100.00;67994.34;10349633;28;20044;-71
2024/03/03 07:00:13;;;;;;;47.05;29.25;;;;;;;-146.18;100.00;67994.34;10352639;27;20052;-72
2024/03/03 07:05:10;;;;;;;49.28;31.73;;;;;;;-146.18;100.00;67994.34;10352779;27;20054;-72
2024/03/03 07:10:06;;;;;;;46.00;32.72;;;;;;;-146.18;100.00;67994.34;10358100;27;20105;-71
2024/03/03 07:15:03;;;;;;;42.20;29.98;;;;;;;-146.18;100.00;67994.34;10355885;27;20048;-71
2024/03/03 07:20:03;;;;;;;37.97;28.50;;;;;;;-146.18;100.00;67994.34;10347875;28;20052;-71
2024/03/03 07:24:59;;;;;;;46.35;31.40;;;;;;;-146.18;100.00;67994.34;10354835;28;20048;-71
2024/03/03 07:29:56;;;;;;;48.13;32.03;;;;;;;-146.18;100.00;67994.34;10353077;27;20527;-71
2024/03/03 07:34:53;;;;;;;42.42;30.80;;;;;;;-146.18;100.00;67994.34;10354136;27;20483;-72
2024/03/03 07:39:49;;;;;;;47.47;30.98;;;;;;;-146.18;100.00;67994.34;10350921;27;20048;-71
2024/03/03 07:44:46;;;;;;;52.45;32.90;;;;;;;-146.18;100.00;67994.34;10351832;27;20060;-71
2024/03/03 07:49:45;;;;;;;54.08;32.38;;;;;;;-146.18;100.00;67994.34;10338604;27;20044;-71
2024/03/03 07:54:41;;;;;;;51.92;32.08;;;;;;;-146.18;100.00;67994.34;10347472;28;20044;-71
2024/03/03 07:59:39;;;;;;;54.05;33.55;;;;;;;-146.18;100.00;67994.34;10353020;27;20063;-71
2024/03/03 08:04:35;;;;;;;56.60;34.53;;;;;;;-146.18;100.00;67994.34;10351744;27;20073;-71
2024/03/03 08:09:32;;;;;;;49.08;33.83;;;;;;;-146.18;100.00;67994.34;10343633;27;20642;-72
2024/03/03 08:14:28;;;;;;;55.17;33.22;;;;;;;-146.18;100.00;67994.34;10355103;28;20122;-71
2024/03/03 08:19:27;;;;;;;54.08;34.33;;;;;;;-146.18;100.00;67994.34;10349641;27;20043;-71
2024/03/03 08:24:24;;;;;;;60.35;36.15;;;;;;;-146.18;100.00;67994.34;10351194;27;20270;-71
2024/03/03 08:29:20;;;;;;;59.03;35.78;;;;;;;-146.18;100.00;67994.34;10355830;27;20131;-71
2024/03/03 08:34:17;;;;;;;63.88;39.08;;;;;;;-146.18;100.00;67994.34;10351263;27;20511;-72
2024/03/03 08:39:16;;;;;;;63.45;37.83;;;;;;;-146.18;100.00;67994.34;10345852;27;20044;-72
2024/03/03 08:44:13;;;;;;;60.78;36.95;;;;;;;-146.18;100.00;67994.34;10338215;27;20044;-72
2024/03/03 08:49:10;;;;;;;63.67;38.92;;;;;;;-146.18;100.00;67994.34;10351079;27;20419;-71
2024/03/03 08:54:06;;;;;;;60.25;37.10;;;;;;;-146.18;100.00;67994.34;10349451;27;20044;-71
2024/03/03 08:59:03;;;;;;;67.20;38.95;;;;;;;-146.18;100.00;67994.34;10342623;27;20079;-71
2024/03/03 09:04:00;;;;;;;56.10;34.65;;;;;;;-146.18;100.00;67994.34;10359576;27;20072;-71
2024/03/03 09:08:57;;;;;;;60.30;37.28;;;;;;;-146.18;100.00;67994.34;10360075;27;20424;-71
2024/03/03 09:13:53;;;;;;;56.35;36.40;;;;;;;-146.18;100.00;67994.34;10353966;27;20051;-71
2024/03/03 09:18:52;;;;;;;56.75;37.05;;;;;;;-146.18;100.00;67994.34;10359430;27;20097;-71
2024/03/03 09:23:49;;;;;;;57.00;36.33;;;;;;;-146.18;100.00;67994.34;10349154;27;20522;-71
2024/03/03 09:28:45;;;;;;;55.85;36.78;;;;;;;-146.18;100.00;67994.34;10362969;28;20047;-71
2024/03/03 09:33:45;;;;;;;51.17;34.85;;;;;;;-146.18;100.00;67994.34;10345085;27;20040;-71
2024/03/03 09:38:41;;;;;;;50.13;33.92;;;;;;;-146.18;100.00;67994.34;10355840;27;20559;-72
2024/03/03 09:43:42;;;;;;;52.78;34.47;;;;;;;-146.18;100.00;67994.34;10358845;27;20048;-71
2024/03/03 09:48:42;;;;;;;43.67;30.27;;;;;;;-146.18;100.00;67994.34;10347324;28;20127;-72
2024/03/03 09:53:40;;;;;;;41.95;31.02;;;;;;;-146.18;100.00;67994.34;10343497;27;20482;-71
2024/03/03 09:58:38;;;;;;;42.70;28.48;;;;;;;-146.18;100.00;67994.34;10354053;27;20186;-71
2024/03/03 10:03:36;;;;;;;38.40;25.90;;;;;;;-146.18;100.00;67994.34;10353903;27;20044;-72
2024/03/03 10:08:35;;;;;;;38.25;27.23;;;;;;;-146.18;100.00;67994.34;10356219;27;20050;-72
2024/03/03 10:13:32;;;;;;;38.47;26.95;;;;;;;-146.18;100.00;67994.34;10346839;27;20040;-72
2024/03/03 10:18:28;;;;;;;36.88;26.15;;;;;;;-146.18;100.00;67994.34;10348707;27;20063;-71
2024/03/03 10:23:28;;;;;;;33.30;24.02;;;;;;;-146.18;100.00;67994.34;10352179;27;20036;-72
2024/03/03 10:28:25;;;;;;;36.03;22.88;;;;;;;-146.18;100.00;67994.34;10352181;27;20036;-72
2024/03/03 10:33:21;;;;;;;35.53;23.17;;;;;;;-146.18;100.00;67994.34;10345172;27;20040;-72
2024/03/03 10:38:18;;;;;;;31.77;23.15;;;;;;;-146.18;100.00;67994.34;10344932;28;20039;-71
2024/03/03 10:43:17;;;;;;;30.77;21.17;;;;;;;-146.18;100.00;67994.34;10354643;27;20048;-72
2024/03/03 10:48:15;;;;;;;27.65;19.77;;;;;;;-146.18;100.00;67994.34;10364619;27;20440;-72
2024/03/03 10:53:12;;;;;;;29.13;20.48;;;;;;;-146.18;100.00;67994.34;10340322;28;20052;-72
2024/03/03 10:58:10;;;;;;;29.38;20.73;;;;;;;-146.18;100.00;67994.34;10351035;27;20551;-72
2024/03/03 11:03:09;;;;;;;27.88;19.38;;;;;;;-146.18;100.00;67994.34;10343539;27;20535;-72
2024/03/03 11:08:08;;;;;;;29.40;19.58;;;;;;;-146.18;100.00;67994.34;10359630;27;20047;-72
2024/03/03 11:13:06;;;;;;;25.25;19.35;;;;;;;-146.18;100.00;67994.34;10346335;27;20470;-72
2024/03/03 11:18:04;;;;;;;28.02;19.95;;;;;;;-146.18;100.00;67994.34;10342043;27;20139;-72
2024/03/03 11:23:25;;;;;;;23.35;18.20;;;;;;;-146.18;100.00;67994.34;10352913;27;20071;-73
2024/03/03 11:28:23;;;;;;;26.83;18.70;;;;;;;-146.18;100.00;67994.34;10351341;27;20043;-72
2024/03/03 11:33:21;;;;;;;25.50;18.83;;;;;;;-146.18;100.00;67994.34;10345404;28;20032;-72
2024/03/03 11:38:18;;;;;;;25.90;19.42;;;;;;;-146.18;100.00;67994.34;10352641;27;20044;-69
2024/03/03 11:43:14;;;;;;;28.85;20.85;;;;;;;-146.18;100.00;67994.34;10358121;27;20054;-70
2024/03/03 11:48:14;;;;;;;25.73;17.85;;;;;;;-146.18;100.00;67994.34;10343037;27;20130;-74
2024/03/03 11:53:11;;;;;;;26.88;19.50;;;;;;;-146.18;100.00;67994.34;10347803;27;20051;-70
2024/03/03 11:58:07;;;;;;;22.48;17.38;;;;;;;-146.18;100.00;67994.34;10347658;27;20047;-70
2024/03/03 12:03:06;;;;;;;28.77;20.02;;;;;;;-146.18;100.00;67994.34;10340622;27;20040;-70
2024/03/03 12:08:05;;;;;;;27.02;19.63;;;;;;;-146.18;100.00;67994.34;10349866;27;20048;-70
2024/03/03 12:13:02;;;;;;;26.38;19.58;;;;;;;-146.18;100.00;67994.34;10346570;28;20040;-70
2024/03/03 12:17:59;;;;;;;28.60;19.58;;;;;;;-146.18;100.00;67994.34;10346772;27;20048;-69
2024/03/03 12:22:56;;;;;;;31.35;19.73;;;;;;;-146.18;100.00;67994.34;10352314;27;20074;-70
2024/03/03 12:27:59;;;;;;;29.02;21.25;;;;;;;-146.18;100.00;67994.34;10354389;27;20044;-69
2024/03/03 12:32:56;;;;;;;28.15;20.40;;;;;;;-146.18;100.00;67994.34;10343875;28;21249;-70
2024/03/03 12:37:55;;;;;;;27.20;20.40;;;;;;;-146.18;100.00;67994.34;10344916;27;20450;-70
2024/03/03 12:42:51;;;;;;;24.73;20.10;;;;;;;-146.18;100.00;67994.34;10349165;27;20045;-71
2024/03/03 12:47:49;;;;;;;28.98;20.70;;;;;;;-146.18;100.00;67994.34;10349374;27;20048;-70
2024/03/03 12:52:47;;;;;;;27.75;19.75;;;;;;;-146.18;100.00;67994.34;10357667;27;20074;-69
2024/03/03 12:57:44;;;;;;;29.63;20.52;;;;;;;-146.18;100.00;67994.34;10356037;27;20044;-69
2024/03/03 13:02:42;;;;;;;27.05;20.63;;;;;;;-146.18;100.00;67994.34;10352621;27;20078;-70
2024/03/03 13:07:50;;;;;;;27.98;19.17;;;;;;;-146.18;100.00;67994.34;10352651;27;20504;-70
2024/03/03 13:12:54;;;;;;;30.55;21.23;;;;;;;-146.18;100.00;67994.34;10347529;28;20109;-70
2024/03/03 13:18:15;;;;;;;27.88;20.67;;;;;;;-146.18;100.00;67994.34;10351524;27;20074;-70
2024/03/03 13:23:14;;;;;;;30.50;22.63;;;;;;;-146.18;100.00;67994.34;10347570;27;20406;-70
2024/03/03 13:28:13;;;;;;;31.58;20.92;;;;;;;-146.18;100.00;67994.34;10343501;27;20040;-70
2024/03/03 13:33:10;;;;;;;29.80;20.27;;;;;;;-146.18;100.00;67994.34;10352753;27;20036;-70
2024/03/03 13:38:07;;;;;;;24.88;19.95;;;;;;;-146.18;100.00;67994.34;10355882;27;20560;-71
2024/03/03 13:43:04;;;;;;;25.25;19.52;;;;;;;-146.18;100.00;67994.34;10351078;27;20044;-70
2024/03/03 13:48:08;;;;;;;26.67;20.55;;;;;;;-146.18;100.00;67994.34;10356800;27;20048;-71
2024/03/03 13:53:09;;;;;;;29.63;19.90;;;;;;;-146.18;100.00;67994.34;10354386;27;20556;-70
2024/03/03 13:58:06;;;;;;;30.92;21.67;;;;;;;-146.18;100.00;67994.34;10347441;27;20056;-70
2024/03/03 14:03:03;;;;;;;33.08;21.92;;;;;;;-146.18;100.00;67994.34;10351269;27;20520;-70
2024/03/03 14:08:03;;;;;;;27.85;21.73;;;;;;;-146.18;100.00;67994.34;10355401;27;20454;-70
2024/03/03 14:13:00;;;;;;;32.35;23.05;;;;;;;-146.18;100.00;67994.34;10350248;27;20040;-70
2024/03/03 14:18:02;;;;;;;31.02;22.42;;;;;;;-146.18;100.00;67994.34;10355812;27;20087;-70
2024/03/03 14:22:58;;;;;;;29.30;22.85;;;;;;;-146.18;100.00;67994.34;10349199;27;20512;-70
2024/03/03 14:27:55;;;;;;;33.78;23.33;;;;;;;-146.18;100.00;67994.34;10344237;27;20048;-70
2024/03/03 14:33:04;;;;;;;33.45;21.70;;;;;;;-146.18;100.00;67994.34;10353513;27;20040;-70
2024/03/03 14:38:02;;;;;;;35.00;24.35;;;;;;;-146.18;100.00;67994.34;10353765;27;20053;-70
2024/03/03 14:42:58;;;;;;;39.30;24.67;;;;;;;-146.18;100.00;67994.34;10350929;27;20324;-69
2024/03/03 14:47:55;;;;;;;34.25;22.83;;;;;;;-146.18;100.00;67994.34;10350830;27;20071;-70
2024/03/03 14:52:51;;;;;;;32.63;24.23;;;;;;;-146.18;100.00;67994.34;10345938;27;20047;-70
2024/03/03 14:57:48;;;;;;;34.95;25.10;;;;;;;-146.18;100.00;67994.34;10338337;28;20066;-70
2024/03/03 15:02:44;;;;;;;34.78;24.80;;;;;;;-146.18;100.00;67994.34;10343528;27;20087;-70
2024/03/03 15:07:41;;;;;;;35.72;24.15;;;;;;;-146.18;100.00;67994.34;10343958;27;20469;-69
2024/03/03 15:12:39;;;;;;;34.97;23.40;;;;;;;-146.18;100.00;67994.34;10344827;27;20044;-70
2024/03/03 15:17:36;;;;;;;39.90;25.02;;;;;;;-146.18;100.00;67994.34;10355006;27;20388;-71
2024/03/03 15:22:32;;;;;;;43.67;25.17;;;;;;;-146.18;100.00;67994.34;10344849;27;20052;-70
2024/03/03 15:27:29;;;;;;;38.70;24.70;;;;;;;-146.18;100.00;67994.34;10349805;27;20500;-71
2024/03/03 15:32:25;;;;;;;39.60;25.55;;;;;;;-146.18;100.00;67994.34;10341230;28;20048;-71
2024/03/03 15:37:22;;;;;;;39.72;25.15;;;;;;;-146.18;100.00;67994.34;10334809;27;20579;-71
2024/03/03 15:42:18;;;;;;;42.97;27.65;;;;;;;-146.18;100.00;67994.34;10336683;27;20046;-71
2024/03/03 15:47:15;;;;;;;41.30;26.17;;;;;;;-146.18;100.00;67994.34;10345634;27;20093;-71
2024/03/03 15:52:12;;;;;;;42.60;27.33;;;;;;;-146.18;100.00;67994.34;10339181;27;20089;-72
2024/03/03 15:57:09;;;;;;;45.70;28.80;;;;;;;-146.18;100.00;67994.34;10346129;27;20442;-70
2024/03/03 16:02:05;;;;;;;42.72;28.58;;;;;;;-146.18;100.00;67994.34;10348611;27;20069;-72
2024/03/03 16:07:02;;;;;;;43.83;28.77;;;;;;;-146.18;100.00;67994.34;10346096;27;20147;-69
2024/03/03 16:12:02;;;;;;;42.03;28.52;;;;;;;-146.18;100.00;67994.34;10351700;27;20048;-70
2024/03/03 16:16:58;;;;;;;46.67;29.50;;;;;;;-146.18;100.00;67994.34;10346071;27;20048;-70
2024/03/03 16:21:55;;;;;;;44.63;29.90;;;;;;;-146.18;100.00;67994.34;10340297;27;20499;-70
2024/03/03 16:26:51;;;;;;;45.03;29.27;;;;;;;-146.18;100.00;67994.34;10339098;27;20690;-68
2024/03/03 16:31:48;;;;;;;49.75;29.45;;;;;;;-146.18;100.00;67994.34;10350920;27;20051;-71
2024/03/03 16:36:45;;;;;;;47.65;29.15;;;;;;;-146.18;100.00;67994.34;10347526;27;20040;-70
2024/03/03 16:41:41;;;;;;;47.47;29.13;;;;;;;-146.18;100.00;67994.34;10345853;27;20062;-70
2024/03/03 16:46:38;;;;;;;48.42;30.83;;;;;;;-146.18;100.00;67994.34;10343776;27;20217;-68
2024/03/03 16:51:34;;;;;;;52.05;32.13;;;;;;;-146.18;100.00;67994.34;10341597;27;20084;-70
2024/03/03 16:56:31;;;;;;;56.40;36.72;;;;;;;-146.18;100.00;67994.34;10337311;27;20048;-70
2024/03/03 17:01:27;;;;;;;60.85;38.05;;;;;;;-146.18;100.00;67994.34;10344475;27;20109;-70
2024/03/03 17:06:24;;;;;;;57.55;37.28;;;;;;;-146.18;100.00;67994.34;10351956;27;20051;-69
2024/03/03 17:11:20;;;;;;;61.10;38.45;;;;;;;-146.18;100.00;67994.34;10341426;27;20039;-72
2024/03/03 17:16:17;;;;;;;61.60;37.80;;;;;;;-146.18;100.00;67994.34;10347396;27;20419;-70
2024/03/03 17:21:14;;;;;;;66.85;38.15;;;;;;;-146.18;100.00;67994.34;10342071;27;20044;-71
2024/03/03 17:26:10;;;;;;;70.25;41.85;;;;;;;-146.18;100.00;67994.34;10345102;27;20106;-70
2024/03/03 17:31:07;;;;;;;73.95;43.13;;;;;;;-146.18;100.00;67994.34;10350548;27;20052;-70
2024/03/03 17:36:05;;;;;;;70.38;42.35;;;;;;;-146.18;100.00;67994.34;10360726;27;20074;-72
2024/03/03 17:41:01;;;;;;;78.70;43.75;;;;;;;-146.18;100.00;67994.34;10360529;27;20044;-72
2024/03/03 17:45:58;;;;;;;82.97;48.10;;;;;;;-146.18;100.00;67994.34;10356426;27;20097;-71
2024/03/03 17:50:54;;;;;;;81.85;48.10;;;;;;;-146.18;100.00;67994.34;10356292;27;20714;-71
2024/03/03 17:55:51;;;;;;;79.10;46.47;;;;;;;-146.18;100.00;67994.34;10346417;27;20040;-72
2024/03/03 18:00:48;;;;;;;88.70;51.13;;;;;;;-146.18;100.00;67994.34;10343286;27;20052;-72
2024/03/03 18:05:45;;;;;;;78.95;45.08;;;;;;;-146.18;100.00;67994.34;10349908;27;20117;-72
2024/03/03 18:10:42;;;;;;;84.25;50.35;;;;;;;-146.18;100.00;67994.34;10346451;27;20085;-71
2024/03/03 18:15:39;;;;;;;85.10;51.13;;;;;;;-146.18;100.00;67994.34;10355435;27;20040;-70
2024/03/03 18:20:35;;;;;;;81.40;51.60;;;;;;;-146.18;100.00;67994.34;10340348;28;20074;-72
2024/03/03 18:25:35;;;;;;;92.43;49.25;;;;;;;-146.18;100.00;67994.34;10351066;27;20043;-70
2024/03/03 18:30:32;;;;;;;84.05;47.83;;;;;;;-146.18;100.00;67994.34;10346170;27;20044;-70
2024/03/03 18:35:28;;;;;;;80.05;50.85;;;;;;;-146.18;100.00;67994.34;10344056;27;20534;-71
2024/03/03 18:40:25;;;;;;;84.70;50.42;;;;;;;-146.18;100.00;67994.34;10354785;27;20051;-72
2024/03/03 18:45:21;;;;;;;73.70;47.03;;;;;;;-146.18;100.00;67994.34;10355037;27;20055;-72
2024/03/03 18:50:22;;;;;;;82.13;48.35;;;;;;;-146.18;100.00;67994.34;10345155;27;20101;-72
2024/03/03 18:55:19;;;;;;;76.10;46.13;;;;;;;-146.18;100.00;67994.34;10345863;27;20495;-72
2024/03/03 19:00:18;;;;;;;76.05;46.13;;;;;;;-146.18;100.00;67994.34;10355367;27;20055;-72
2024/03/03 19:05:14;;;;;;;87.38;48.58;;;;;;;-146.18;100.00;67994.34;10351785;27;20040;-72
2024/03/03 19:10:11;;;;;;;81.82;48.33;;;;;;;-146.18;100.00;67994.34;10344909;27;20044;-70
2024/03/03 19:15:08;;;;;;;75.72;46.75;;;;;;;-146.18;100.00;67994.34;10338233;28;20072;-71
2024/03/03 19:20:06;;;;;;;72.40;43.65;;;;;;;-146.18;100.00;67994.34;10347333;27;20055;-71
2024/03/03 19:25:04;;;;;;;82.60;45.50;;;;;;;-146.18;100.00;67994.34;10342939;27;20452;-72
2024/03/03 19:30:01;;;;;;;83.00;48.58;;;;;;;-146.18;100.00;67994.34;10360905;28;20505;-72
2024/03/03 19:34:57;;;;;;;74.65;47.50;;;;;;;-146.18;100.00;67994.34;10350979;28;20044;-72
2024/03/03 19:39:54;;;;;;;80.38;47.83;;;;;;;-146.18;100.00;67994.34;10352195;27;20052;-69
2024/03/03 19:44:50;;;;;;;83.38;48.55;;;;;;;-146.18;100.00;67994.34;10349068;27;20105;-72
2024/03/03 19:49:47;;;;;;;87.78;51.30;;;;;;;-146.18;100.00;67994.34;10343124;27;20054;-73
2024/03/03 19:54:44;;;;;;;77.57;46.72;;;;;;;-146.18;100.00;67994.34;10341252;27;20496;-72
2024/03/03 19:59:40;;;;;;;72.57;46.08;;;;;;;-146.18;100.00;67994.34;10342277;28;20043;-72
2024/03/03 20:04:37;;;;;;;70.63;43.72;;;;;;;-146.18;100.00;67994.34;10346545;27;20520;-72
2024/03/03 20:09:35;;;;;;;79.07;46.35;;;;;;;-146.18;100.00;67994.34;10357111;27;20097;-72
2024/03/03 20:14:33;;;;;;;77.50;45.17;;;;;;;-146.18;100.00;67994.34;10351087;27;20498;-72
2024/03/03 20:19:30;;;;;;;70.05;44.63;;;;;;;-146.18;100.00;67994.34;10352065;27;20097;-72
2024/03/03 20:24:26;;;;;;;75.88;45.88;;;;;;;-146.18;100.00;67994.34;10350818;27;20541;-72
2024/03/03 20:29:23;;;;;;;72.10;45.10;;;;;;;-146.18;100.00;67994.34;10351001;27;20044;-72
2024/03/03 20:34:19;;;;;;;76.63;45.75;;;;;;;-146.18;100.00;67994.34;10353591;27;20044;-72
2024/03/03 20:39:16;;;;;;;81.45;45.70;;;;;;;-146.18;100.00;67994.34;10353043;27;20522;-72
2024/03/03 20:44:12;;;;;;;75.18;46.33;;;;;;;-146.18;100.00;67994.34;10344053;27;20048;-71
2024/03/03 20:49:09;;;;;;;75.18;44.80;;;;;;;-146.18;100.00;67994.34;10342561;27;20560;-71
2024/03/03 20:54:07;;;;;;;77.95;44.42;;;;;;;-146.18;100.00;67994.34;10345448;27;20044;-71
2024/03/03 20:59:04;;;;;;;81.32;46.17;;;;;;;-146.18;100.00;67994.34;10350366;27;20055;-71
2024/03/03 21:04:00;;;;;;;76.68;46.35;;;;;;;-146.18;100.00;67994.34;10355435;27;20048;-72
2024/03/03 21:08:57;;;;;;;74.93;46.92;;;;;;;-146.18;100.00;67994.34;10356105;27;20066;-72
2024/03/03 21:13:57;;;;;;;80.82;46.95;;;;;;;-146.18;100.00;67994.34;10349446;27;20044;-72
2024/03/03 21:18:53;;;;;;;74.80;46.33;;;;;;;-146.18;100.00;67994.34;10357679;27;20053;-70
2024/03/03 21:23:51;;;;;;;70.63;44.20;;;;;;;-146.18;100.00;67994.34;10341848;27;20054;-70
2024/03/03 21:28:48;;;;;;;76.50;45.90;;;;;;;-146.18;100.00;67994.34;10354272;27;20074;-72
2024/03/03 21:33:44;;;;;;;75.47;45.15;;;;;;;-146.18;100.00;67994.34;10356633;27;20550;-72
2024/03/03 21:38:41;;;;;;;75.53;45.50;;;;;;;-146.18;100.00;67994.34;10357379;27;20293;-72
2024/03/03 21:43:38;;;;;;;80.35;45.80;;;;;;;-146.18;100.00;67994.34;10354744;27;20043;-71
2024/03/03 21:48:35;;;;;;;81.10;47.90;;;;;;;-146.18;100.00;67994.34;10357072;27;20044;-72